createdAt,value
2022-11-24T00:00:13.822Z,735.47
2022-11-24T00:05:16.215Z,722.22
2022-11-24T00:10:18.574Z,717.03
2022-11-24T00:15:24.427Z,730.45
2022-11-24T00:20:27.489Z,729.80
2022-11-24T00:25:29.351Z,696.25
2022-11-24T00:30:33.349Z,640.40
2022-11-24T00:35:35.282Z,630.85
2022-11-24T00:40:38.182Z,587.80
2022-11-24T00:45:40.184Z,584.55
2022-11-24T00:50:44.332Z,563.30
2022-11-24T00:55:50.320Z,555.42
2022-11-24T01:00:53.340Z,543.00
2022-11-24T01:05:55.552Z,559.90
2022-11-24T01:11:11.224Z,565.53
2022-11-24T01:16:22.633Z,555.15
2022-11-24T01:21:25.345Z,548.05
2022-11-24T01:26:28.870Z,545.15
2022-11-24T01:31:32.849Z,550.33
2022-11-24T01:36:34.848Z,558.00
2022-11-24T01:41:40.298Z,545.53
2022-11-24T01:46:46.237Z,542.97
2022-11-24T01:51:53.216Z,530.90
2022-11-24T01:57:01.808Z,521.55
2022-11-24T02:02:07.946Z,539.58
2022-11-24T02:07:14.386Z,528.55
2022-11-24T02:12:16.254Z,525.35
2022-11-24T02:17:19.137Z,527.08
2022-11-24T02:22:40.615Z,528.67
2022-11-24T02:27:49.353Z,524.25
2022-11-24T02:32:55.067Z,529.22
2022-11-24T02:37:57.384Z,539.00
2022-11-24T02:43:06.730Z,523.80
2022-11-24T02:48:08.627Z,526.85
2022-11-24T02:53:14.706Z,525.53
2022-11-24T02:58:16.701Z,528.25
2022-11-24T03:03:19.015Z,599.63
2022-11-24T03:08:24.648Z,587.08
2022-11-24T03:13:27.709Z,596.80
2022-11-24T03:18:33.085Z,577.67
2022-11-24T03:23:34.979Z,580.03
2022-11-24T03:28:37.302Z,591.58
2022-11-24T03:33:39.398Z,583.38
2022-11-24T03:38:41.365Z,581.78
2022-11-24T03:43:44.249Z,560.55
2022-11-24T03:48:46.291Z,552.65
2022-11-24T03:53:48.176Z,560.40
2022-11-24T03:58:53.800Z,551.88
2022-11-24T04:03:55.678Z,539.42
2022-11-24T04:09:01.374Z,560.22
2022-11-24T04:14:03.325Z,539.72
2022-11-24T04:19:06.764Z,540.83
2022-11-24T04:24:08.832Z,558.38
2022-11-24T04:29:10.903Z,534.63
2022-11-24T04:34:12.877Z,535.78
2022-11-24T04:39:24.932Z,530.50
2022-11-24T04:44:32.715Z,548.88
2022-11-24T04:54:38.998Z,552.40
2022-11-24T04:59:40.923Z,530.78
2022-11-24T05:04:43.560Z,532.05
2022-11-24T05:10:04.186Z,546.38
2022-11-24T05:15:10.246Z,550.50
2022-11-24T05:20:12.610Z,555.00
2022-11-24T05:25:17.753Z,539.38
2022-11-24T05:30:21.280Z,532.58
2022-11-24T05:35:24.026Z,505.30
2022-11-24T05:40:26.044Z,522.15
2022-11-24T05:45:28.095Z,532.50
2022-11-24T05:50:29.998Z,530.10
2022-11-24T05:55:33.329Z,512.80
2022-11-24T06:00:38.224Z,512.90
2022-11-24T06:05:40.900Z,521.58
2022-11-24T06:10:42.840Z,639.83
2022-11-24T06:15:44.731Z,573.78
2022-11-24T06:21:09.716Z,548.08
2022-11-24T06:26:12.891Z,556.33
2022-11-24T06:31:21.158Z,532.47
2022-11-24T06:36:26.463Z,540.47
2022-11-24T06:41:30.507Z,541.90
2022-11-24T06:46:34.376Z,529.03
2022-11-24T06:51:36.952Z,522.72
2022-11-24T06:56:39.011Z,512.28
2022-11-24T07:02:04.185Z,525.33
2022-11-24T07:07:07.132Z,534.72
2022-11-24T07:12:09.630Z,531.15
2022-11-24T07:17:11.571Z,525.95
2022-11-24T07:22:13.471Z,517.10
2022-11-24T07:27:15.443Z,508.60
2022-11-24T07:32:17.419Z,519.67
2022-11-24T07:37:19.336Z,511.02
2022-11-24T07:42:22.290Z,507.52
2022-11-24T07:47:24.726Z,510.58
2022-11-24T07:52:26.979Z,518.65
2022-11-24T07:57:29.195Z,523.25
2022-11-24T08:02:31.198Z,507.27
2022-11-24T08:07:33.440Z,519.75
2022-11-24T08:12:35.386Z,523.45
2022-11-24T08:17:37.320Z,509.50
2022-11-24T08:22:39.305Z,485.58
2022-11-24T08:27:41.790Z,498.35
2022-11-24T08:32:44.742Z,533.78
2022-11-24T08:37:46.803Z,506.50
2022-11-24T08:42:48.764Z,529.35
2022-11-24T08:47:55.260Z,518.00
2022-11-24T08:53:01.019Z,508.83
2022-11-24T08:58:03.432Z,505.08
2022-11-24T09:03:07.386Z,509.08
2022-11-24T09:08:09.374Z,516.28
2022-11-24T09:13:11.324Z,518.78
2022-11-24T09:18:14.327Z,517.95
2022-11-24T09:23:17.763Z,514.33
2022-11-24T09:28:19.649Z,524.92
2022-11-24T09:33:22.466Z,607.28
2022-11-24T09:38:24.796Z,559.58
2022-11-24T09:43:46.039Z,601.20
2022-11-24T09:48:52.153Z,597.85
2022-11-24T09:54:09.386Z,556.38
2022-11-24T09:59:20.653Z,592.35
2022-11-24T10:04:25.349Z,622.75
2022-11-24T10:09:58.839Z,675.63
2022-11-24T10:15:16.293Z,681.97
2022-11-24T10:20:52.409Z,693.80
2022-11-24T10:25:58.349Z,678.95
2022-11-24T10:31:17.462Z,731.80
2022-11-24T10:36:54.411Z,706.03
2022-11-24T10:42:07.779Z,746.20
2022-11-24T10:47:23.026Z,743.13
2022-11-24T10:52:26.864Z,586.05
2022-11-24T10:57:30.187Z,627.90
2022-11-24T11:02:39.469Z,653.97
2022-11-24T11:07:41.690Z,500.88
2022-11-24T11:12:45.011Z,685.10
2022-11-24T11:17:52.469Z,772.28
2022-11-24T11:22:56.182Z,749.83
2022-11-24T11:28:19.291Z,773.55
2022-11-24T11:38:53.844Z,771.25
2022-11-24T11:44:09.152Z,772.88
2022-11-24T11:49:13.444Z,770.72
2022-11-24T11:54:35.059Z,785.22
2022-11-24T12:00:07.134Z,777.33
2022-11-24T12:05:38.772Z,778.47
2022-11-24T12:10:55.797Z,770.20
2022-11-24T12:16:14.093Z,12.80
2022-11-24T12:26:52.521Z,776.00
2022-11-24T12:32:31.849Z,769.00
2022-11-24T12:37:51.108Z,769.95
2022-11-24T12:42:55.960Z,777.58
2022-11-24T12:48:09.982Z,774.72
2022-11-24T12:53:23.349Z,767.72
2022-11-24T12:58:42.995Z,774.17
2022-11-24T13:04:09.485Z,763.00
2022-11-24T13:09:13.210Z,769.50
2022-11-24T13:14:16.695Z,759.45
2022-11-24T13:19:24.085Z,767.45
2022-11-24T13:24:30.875Z,767.05
2022-11-24T13:29:54.123Z,766.88
2022-11-24T13:35:12.209Z,764.97
2022-11-24T13:40:14.176Z,764.20
2022-11-24T13:45:38.945Z,772.88
2022-11-24T13:50:50.045Z,770.20
2022-11-24T13:56:01.712Z,758.80
2022-11-24T14:01:13.057Z,763.50
2022-11-24T14:06:47.525Z,769.50
2022-11-24T14:12:20.413Z,778.63
2022-11-24T14:17:27.672Z,773.55
2022-11-24T14:22:40.293Z,764.80
2022-11-24T14:27:42.787Z,771.50
2022-11-24T14:33:01.817Z,761.25
2022-11-24T14:38:13.060Z,759.45
2022-11-24T14:43:30.244Z,768.97
2022-11-24T14:48:36.986Z,772.97
2022-11-24T14:53:43.939Z,764.87
2022-11-24T14:58:45.867Z,765.03
2022-11-24T15:04:26.475Z,765.10
2022-11-24T15:10:01.827Z,766.08
2022-11-24T15:15:33.950Z,764.97
2022-11-24T15:20:44.665Z,762.67
2022-11-24T15:25:50.079Z,748.95
2022-11-24T15:31:13.186Z,770.60
2022-11-24T15:36:17.005Z,760.15
2022-11-24T15:41:26.620Z,762.80
2022-11-24T15:46:30.563Z,757.30
2022-11-24T15:51:35.137Z,760.70
2022-11-24T15:56:38.956Z,759.33
2022-11-24T16:01:42.732Z,762.13
2022-11-24T16:06:46.151Z,760.72
2022-11-24T16:11:48.394Z,751.13
2022-11-24T16:16:50.596Z,751.30
2022-11-24T16:21:55.393Z,747.15
2022-11-24T16:26:57.738Z,747.80
2022-11-24T16:31:59.904Z,744.13
2022-11-24T16:37:03.989Z,754.78
2022-11-24T16:42:06.621Z,739.75
2022-11-24T16:47:09.213Z,751.53
2022-11-24T16:52:15.405Z,751.97
2022-11-24T16:57:17.392Z,744.63
2022-11-24T17:02:20.858Z,488.00
2022-11-24T17:07:23.215Z,739.05
2022-11-24T17:12:30.388Z,746.90
2022-11-24T17:17:33.750Z,737.30
2022-11-24T17:22:36.705Z,754.38
2022-11-24T17:27:38.626Z,696.65
2022-11-24T17:32:40.918Z,748.47
2022-11-24T17:37:43.859Z,747.67
2022-11-24T17:42:46.967Z,646.67
2022-11-24T17:53:06.047Z,744.35
2022-11-24T17:58:10.088Z,748.13
2022-11-24T18:03:15.447Z,742.38
2022-11-24T18:08:18.478Z,737.17
2022-11-24T18:13:41.089Z,741.75
2022-11-24T18:18:48.835Z,739.08
2022-11-24T18:23:53.196Z,738.42
2022-11-24T18:28:55.155Z,736.55
2022-11-24T18:33:57.043Z,748.40
2022-11-24T18:39:04.746Z,744.45
2022-11-24T18:44:11.056Z,737.05
2022-11-24T18:49:13.059Z,739.80
2022-11-24T18:54:18.605Z,735.60
2022-11-24T18:59:22.036Z,735.97
2022-11-24T19:04:24.815Z,733.22
2022-11-24T19:09:27.531Z,735.80
2022-11-24T19:14:29.600Z,737.88
2022-11-24T19:19:34.269Z,741.60
2022-11-24T19:24:36.665Z,727.17
2022-11-24T19:29:44.643Z,730.35
2022-11-24T19:34:47.709Z,730.42
2022-11-24T19:39:50.267Z,735.33
2022-11-24T19:44:56.667Z,726.58
2022-11-24T19:49:59.848Z,731.22
2022-11-24T19:55:05.349Z,735.50
2022-11-24T20:00:16.719Z,735.63
2022-11-24T20:05:25.215Z,720.03
2022-11-24T20:10:27.337Z,701.97
2022-11-24T20:15:30.896Z,708.25
2022-11-24T20:20:33.144Z,715.70
2022-11-24T20:25:38.537Z,724.60
2022-11-24T20:30:41.756Z,734.22
2022-11-24T20:35:43.708Z,719.63
2022-11-24T20:40:46.067Z,723.13
2022-11-24T20:45:47.956Z,733.13
2022-11-24T20:50:51.589Z,733.15
2022-11-24T20:56:05.806Z,728.22
2022-11-24T21:01:09.664Z,739.40
2022-11-24T21:06:14.051Z,736.75
2022-11-24T21:11:17.768Z,737.42
2022-11-24T21:16:22.250Z,723.45
2022-11-24T21:21:26.049Z,732.35
2022-11-24T21:26:28.609Z,738.00
2022-11-24T21:31:31.682Z,732.03
2022-11-24T21:36:35.548Z,733.15
2022-11-24T21:41:41.498Z,730.63
2022-11-24T21:46:49.624Z,730.63
2022-11-24T21:52:04.353Z,739.00
2022-11-24T21:57:08.394Z,740.10
2022-11-24T22:02:13.253Z,731.78
2022-11-24T22:07:16.076Z,730.53
2022-11-24T22:12:18.274Z,735.70
2022-11-24T22:17:20.161Z,728.42
2022-11-24T22:22:22.024Z,686.90
2022-11-24T22:27:23.927Z,726.60
2022-11-24T22:32:25.873Z,731.05
2022-11-24T22:37:29.263Z,725.35
2022-11-24T22:42:31.213Z,702.08
2022-11-24T22:47:33.135Z,712.00
2022-11-24T22:52:37.738Z,711.25
2022-11-24T22:57:39.704Z,725.25
2022-11-24T23:02:41.700Z,734.92
2022-11-24T23:07:43.718Z,732.22
2022-11-24T23:12:45.879Z,743.22
2022-11-24T23:17:50.609Z,694.35
2022-11-24T23:22:55.394Z,675.70
2022-11-24T23:28:00.235Z,658.85
2022-11-24T23:33:02.476Z,653.88
2022-11-24T23:38:07.720Z,607.95
2022-11-24T23:43:14.348Z,611.13
2022-11-24T23:48:17.336Z,615.15
2022-11-24T23:53:20.271Z,628.60
2022-11-24T23:58:24.062Z,627.45
